createdAt,value
2017-10-25T00:03:17.344Z,97378.39
2017-10-25T00:06:07.030Z,97372.24
2017-10-25T00:09:05.112Z,97372.63
2017-10-25T00:12:02.976Z,97372.75
2017-10-25T00:24:48.647Z,97361.45
2017-10-25T00:27:38.405Z,97364.22
2017-10-25T00:30:35.432Z,97363.64
2017-10-25T00:42:25.093Z,97357.92
2017-10-25T00:44:50.859Z,97358.07
2017-10-25T00:47:16.735Z,97359.31
2017-10-25T00:49:42.504Z,97361.48
2017-10-25T00:52:08.256Z,97351.86
2017-10-25T00:54:34.040Z,97357.31
2017-10-25T00:56:59.788Z,97348.23
2017-10-25T00:59:25.559Z,97348.48
2017-10-25T01:01:51.359Z,97339.72
2017-10-25T01:04:17.119Z,97338.04
2017-10-25T01:06:42.899Z,97337.98
2017-10-25T01:09:08.667Z,97333.80
2017-10-25T01:11:34.437Z,97335.80
2017-10-25T01:14:00.224Z,97336.91
2017-10-25T01:16:26.015Z,97331.39
2017-10-25T01:18:51.827Z,97334.63
2017-10-25T01:21:17.611Z,97334.70
2017-10-25T01:23:43.408Z,97330.42
2017-10-25T01:26:09.168Z,97333.13
2017-10-25T01:28:34.956Z,97332.16
2017-10-25T01:31:00.796Z,97340.37
2017-10-25T01:33:26.556Z,97340.00
2017-10-25T01:35:52.335Z,97338.45
2017-10-25T01:38:18.098Z,97338.84
2017-10-25T01:40:43.867Z,97339.95
2017-10-25T01:43:09.741Z,97337.70
2017-10-25T01:45:35.515Z,97340.03
2017-10-25T01:48:01.266Z,97344.80
2017-10-25T01:50:27.063Z,97341.24
2017-10-25T01:52:52.825Z,97339.64
2017-10-25T01:55:18.805Z,97334.25
2017-10-25T01:57:44.571Z,97331.05
2017-10-25T02:00:10.347Z,97333.95
2017-10-25T02:02:36.159Z,97326.32
2017-10-25T02:05:01.952Z,97328.84
2017-10-25T02:07:27.699Z,97329.39
2017-10-25T02:09:53.515Z,97331.22
2017-10-25T02:12:19.282Z,97327.07
2017-10-25T02:14:45.082Z,97329.62
2017-10-25T02:17:10.845Z,97330.92
2017-10-25T02:19:36.697Z,97333.91
2017-10-25T02:22:02.514Z,97322.57
2017-10-25T02:24:28.291Z,97322.62
2017-10-25T02:26:54.042Z,97327.06
2017-10-25T02:29:19.819Z,97336.62
2017-10-25T02:31:45.577Z,97333.83
2017-10-25T02:34:11.334Z,97336.73
2017-10-25T02:36:37.082Z,97336.61
2017-10-25T02:39:02.868Z,97339.88
2017-10-25T02:41:28.623Z,97337.11
2017-10-25T02:43:54.391Z,97335.72
2017-10-25T02:46:20.195Z,97334.69
2017-10-25T02:48:45.963Z,97331.57
2017-10-25T02:51:11.727Z,97329.19
2017-10-25T02:53:37.475Z,97325.04
2017-10-25T02:56:03.323Z,97326.14
2017-10-25T02:58:29.080Z,97323.59
2017-10-25T03:00:54.830Z,97324.84
2017-10-25T03:03:20.683Z,97316.69
2017-10-25T03:05:46.432Z,97314.50
2017-10-25T03:08:12.195Z,97316.49
2017-10-25T03:10:37.935Z,97316.34
2017-10-25T03:13:03.723Z,97313.57
2017-10-25T03:15:29.502Z,97313.80
2017-10-25T03:17:55.250Z,97312.98
2017-10-25T03:20:21.031Z,97312.88
2017-10-25T03:22:47.079Z,97311.54
2017-10-25T03:25:12.854Z,97307.04
2017-10-25T03:27:38.627Z,97308.93
2017-10-25T03:30:04.388Z,97304.72
2017-10-25T03:32:30.146Z,97306.46
2017-10-25T03:34:55.928Z,97308.59
2017-10-25T03:37:21.709Z,97315.56
2017-10-25T03:39:47.459Z,97319.54
2017-10-25T03:42:13.222Z,97314.53
2017-10-25T03:44:38.979Z,97312.66
2017-10-25T03:47:04.724Z,97313.31
2017-10-25T03:49:30.503Z,97306.12
2017-10-25T03:51:56.256Z,97298.48
2017-10-25T03:54:22.008Z,97294.50
2017-10-25T03:56:47.777Z,97301.23
2017-10-25T03:59:13.528Z,97296.31
2017-10-25T04:01:39.318Z,97298.00
2017-10-25T04:04:05.072Z,97302.77
2017-10-25T04:06:30.853Z,97302.20
2017-10-25T04:08:56.643Z,97292.77
2017-10-25T04:11:22.435Z,97288.25
2017-10-25T04:13:48.190Z,97288.30
2017-10-25T04:16:13.981Z,97296.52
2017-10-25T04:18:39.741Z,97298.14
2017-10-25T04:21:05.499Z,97296.09
2017-10-25T04:23:31.379Z,97303.66
2017-10-25T04:25:57.196Z,97299.08
2017-10-25T04:28:23.015Z,97296.16
2017-10-25T04:30:48.793Z,97295.80
2017-10-25T04:33:14.598Z,97290.07
2017-10-25T04:35:40.346Z,97289.70
2017-10-25T04:38:06.092Z,97277.94
2017-10-25T04:40:31.879Z,97271.40
2017-10-25T04:42:57.657Z,97260.28
2017-10-25T04:45:23.443Z,97268.70
2017-10-25T04:47:49.206Z,97274.72
2017-10-25T04:50:14.974Z,97272.54
2017-10-25T04:52:40.736Z,97271.69
2017-10-25T04:55:06.491Z,97270.38
2017-10-25T04:57:32.280Z,97267.82
2017-10-25T04:59:58.035Z,97270.79
2017-10-25T05:02:23.800Z,97278.86
2017-10-25T05:04:49.569Z,97269.17
2017-10-25T05:07:15.303Z,97268.06
2017-10-25T05:09:41.087Z,97265.58
2017-10-25T05:12:06.859Z,97265.18
2017-10-25T05:14:32.627Z,97259.71
2017-10-25T05:16:58.413Z,97265.18
2017-10-25T05:19:24.169Z,97267.00
2017-10-25T05:21:49.912Z,97261.12
2017-10-25T05:24:15.703Z,97266.84
2017-10-25T05:26:41.447Z,97258.80
2017-10-25T05:29:07.222Z,97260.31
2017-10-25T05:31:32.995Z,97266.44
2017-10-25T05:33:58.752Z,97272.48
2017-10-25T05:36:24.529Z,97274.62
2017-10-25T05:38:50.307Z,97272.90
2017-10-25T05:41:16.067Z,97271.59
2017-10-25T05:43:41.832Z,97278.89
2017-10-25T05:46:07.595Z,97270.00
2017-10-25T05:48:33.387Z,97266.60
2017-10-25T05:50:59.189Z,97275.02
2017-10-25T05:53:24.964Z,97274.02
2017-10-25T05:55:50.719Z,97277.98
2017-10-25T05:58:16.484Z,97276.67
2017-10-25T06:00:42.259Z,97276.42
2017-10-25T06:03:08.007Z,97286.63
2017-10-25T06:05:33.750Z,97289.21
2017-10-25T06:07:59.532Z,97294.05
2017-10-25T06:10:25.303Z,97293.19
2017-10-25T06:12:51.160Z,97288.45
2017-10-25T06:15:16.979Z,97288.58
2017-10-25T06:17:42.735Z,97296.56
2017-10-25T06:20:08.510Z,97293.45
2017-10-25T06:22:34.503Z,97292.55
2017-10-25T06:25:00.319Z,97295.72
2017-10-25T06:27:26.067Z,97293.04
2017-10-25T06:29:52.316Z,97296.86
2017-10-25T06:32:18.076Z,97303.56
2017-10-25T06:34:44.113Z,97302.33
2017-10-25T06:37:09.891Z,97301.80
2017-10-25T06:39:35.669Z,97298.52
2017-10-25T06:42:01.427Z,97308.55
2017-10-25T06:44:27.211Z,97308.28
2017-10-25T06:46:52.988Z,97313.64
2017-10-25T06:49:18.765Z,97307.70
2017-10-25T06:51:44.555Z,97308.73
2017-10-25T06:54:10.336Z,97317.50
2017-10-25T06:56:36.115Z,97318.51
2017-10-25T06:59:01.887Z,97314.47
2017-10-25T07:01:27.631Z,97325.27
2017-10-25T07:03:53.388Z,97320.50
2017-10-25T07:06:19.150Z,97326.81
2017-10-25T07:08:44.919Z,97334.37
2017-10-25T07:11:10.675Z,97328.41
2017-10-25T07:13:36.441Z,97327.97
2017-10-25T07:16:02.196Z,97331.96
2017-10-25T07:18:28.859Z,97328.41
2017-10-25T07:20:54.642Z,97327.13
2017-10-25T07:23:20.458Z,97328.55
2017-10-25T07:25:46.232Z,97335.03
2017-10-25T07:28:11.972Z,97335.33
2017-10-25T07:30:37.755Z,97335.24
2017-10-25T07:33:03.510Z,97335.55
2017-10-25T07:35:29.276Z,97336.97
2017-10-25T07:37:55.064Z,97334.20
2017-10-25T07:40:20.896Z,97333.14
2017-10-25T07:42:46.659Z,97335.11
2017-10-25T07:45:12.428Z,97340.97
2017-10-25T07:47:38.166Z,97338.66
2017-10-25T07:50:03.948Z,97344.98
2017-10-25T07:52:29.772Z,97344.03
2017-10-25T07:54:55.511Z,97346.80
2017-10-25T07:57:21.287Z,97341.68
2017-10-25T07:59:47.019Z,97340.21
2017-10-25T08:02:12.782Z,97342.26
2017-10-25T08:04:38.557Z,97339.70
2017-10-25T08:07:04.319Z,97340.17
2017-10-25T08:09:30.667Z,97347.89
2017-10-25T08:11:56.443Z,97352.02
2017-10-25T08:14:22.180Z,97348.59
2017-10-25T08:16:47.927Z,97348.51
2017-10-25T08:19:13.691Z,97351.79
2017-10-25T08:21:39.435Z,97356.35
2017-10-25T08:24:05.207Z,97355.07
2017-10-25T08:26:30.948Z,97358.25
2017-10-25T08:28:56.763Z,97356.27
2017-10-25T08:31:22.505Z,97359.27
2017-10-25T08:33:48.251Z,97356.13
2017-10-25T08:36:14.037Z,97354.08
2017-10-25T08:38:39.793Z,97349.00
2017-10-25T08:41:05.578Z,97346.83
2017-10-25T08:43:31.332Z,97352.14
2017-10-25T08:45:57.343Z,97348.00
2017-10-25T08:48:23.134Z,97348.14
2017-10-25T08:50:48.889Z,97350.97
2017-10-25T08:53:14.663Z,97340.61
2017-10-25T08:55:40.443Z,97334.63
2017-10-25T08:58:06.243Z,97341.14
2017-10-25T09:00:32.027Z,97339.19
2017-10-25T09:02:57.803Z,97345.59
2017-10-25T09:05:23.571Z,97339.09
2017-10-25T09:07:49.418Z,97338.88
2017-10-25T09:10:15.196Z,97343.89
2017-10-25T09:12:40.975Z,97345.14
2017-10-25T09:15:06.747Z,97339.31
2017-10-25T09:17:32.515Z,97338.15
2017-10-25T09:19:58.293Z,97330.88
2017-10-25T09:22:24.070Z,97332.57
2017-10-25T09:24:49.819Z,97343.21
2017-10-25T09:27:15.588Z,97331.93
2017-10-25T09:29:41.372Z,97325.86
2017-10-25T09:32:07.114Z,97325.03
2017-10-25T09:34:32.890Z,97326.02
2017-10-25T09:36:58.635Z,97325.37
2017-10-25T09:39:24.399Z,97326.94
2017-10-25T09:41:50.187Z,97324.72
2017-10-25T09:44:15.931Z,97323.33
2017-10-25T09:46:41.674Z,97325.84
2017-10-25T09:49:07.663Z,97324.21
2017-10-25T09:51:33.407Z,97312.54
2017-10-25T09:53:59.178Z,97321.61
2017-10-25T09:56:24.949Z,97324.45
2017-10-25T09:58:50.716Z,97330.89
2017-10-25T10:01:16.498Z,97326.16
2017-10-25T10:03:42.259Z,97329.04
2017-10-25T10:06:08.019Z,97323.31
2017-10-25T10:08:33.786Z,97330.84
2017-10-25T10:10:59.566Z,97322.72
2017-10-25T10:13:25.338Z,97322.36
2017-10-25T10:15:51.129Z,97319.36
2017-10-25T10:18:16.880Z,97321.22
2017-10-25T10:20:42.651Z,97319.66
2017-10-25T10:23:08.433Z,97307.84
2017-10-25T10:25:34.224Z,97308.14
2017-10-25T10:27:59.983Z,97307.67
2017-10-25T10:30:25.755Z,97315.27
2017-10-25T10:32:51.560Z,97313.66
2017-10-25T10:35:17.332Z,97306.93
2017-10-25T10:37:43.096Z,97309.63
2017-10-25T10:40:08.875Z,97318.99
2017-10-25T10:42:34.659Z,97306.59
2017-10-25T10:45:00.451Z,97311.55
2017-10-25T10:47:26.223Z,97305.67
2017-10-25T10:49:51.987Z,97301.78
2017-10-25T10:52:17.742Z,97304.03
2017-10-25T10:54:43.507Z,97310.94
2017-10-25T10:57:09.269Z,97312.30
2017-10-25T10:59:35.039Z,97311.57
2017-10-25T11:02:00.805Z,97308.22
2017-10-25T11:04:26.585Z,97312.67
2017-10-25T11:06:52.343Z,97305.34
2017-10-25T11:09:18.119Z,97304.47
2017-10-25T11:11:43.895Z,97300.80
2017-10-25T11:14:09.698Z,97298.02
2017-10-25T11:16:35.463Z,97297.91
2017-10-25T11:19:01.273Z,97295.96
2017-10-25T11:21:27.023Z,97300.58
2017-10-25T11:23:52.763Z,97289.13
2017-10-25T11:26:18.535Z,97291.34
2017-10-25T11:28:44.306Z,97292.24
2017-10-25T11:31:10.071Z,97284.42
2017-10-25T11:33:35.817Z,97286.30
2017-10-25T11:36:01.583Z,97282.42
2017-10-25T11:38:27.363Z,97278.79
2017-10-25T11:40:53.126Z,97278.79
2017-10-25T11:43:18.879Z,97269.48
2017-10-25T11:45:44.672Z,97267.08
2017-10-25T11:48:10.431Z,97271.30
2017-10-25T11:50:36.208Z,97270.65
2017-10-25T11:53:01.994Z,97266.08
2017-10-25T11:55:27.778Z,97272.29
2017-10-25T11:57:53.531Z,97266.25
2017-10-25T12:00:19.332Z,97265.95
2017-10-25T12:02:45.084Z,97257.67
2017-10-25T12:05:10.839Z,97260.17
2017-10-25T12:07:36.609Z,97256.67
2017-10-25T12:10:02.399Z,97270.75
2017-10-25T12:12:28.203Z,97269.94
2017-10-25T12:14:54.911Z,97264.03
2017-10-25T12:17:20.673Z,97269.40
2017-10-25T12:19:46.451Z,97273.36
2017-10-25T12:22:12.241Z,97264.98
2017-10-25T12:24:37.996Z,97270.25
2017-10-25T12:27:03.755Z,97267.02
2017-10-25T12:29:29.525Z,97263.00
2017-10-25T12:31:55.266Z,97263.98
2017-10-25T12:34:21.063Z,97261.99
2017-10-25T12:36:46.855Z,97254.70
2017-10-25T12:39:12.639Z,97250.27
2017-10-25T12:41:38.420Z,97248.83
2017-10-25T12:44:04.171Z,97244.89
2017-10-25T12:46:29.935Z,97242.53
2017-10-25T12:48:55.695Z,97241.14
2017-10-25T12:51:21.483Z,97236.09
2017-10-25T12:53:47.220Z,97244.94
2017-10-25T12:56:13.003Z,97243.38
2017-10-25T12:58:38.779Z,97242.51
2017-10-25T13:01:04.539Z,97241.70
2017-10-25T13:03:30.302Z,97241.39
2017-10-25T13:05:56.075Z,97240.25
2017-10-25T13:08:21.828Z,97237.95
2017-10-25T13:11:09.596Z,97245.76
2017-10-25T13:14:01.111Z,97239.64
2017-10-25T13:16:39.200Z,97242.09
2017-10-25T13:19:04.952Z,97238.29
2017-10-25T13:21:30.747Z,97236.68
2017-10-25T13:23:56.511Z,97233.20
2017-10-25T13:26:22.285Z,97238.48
2017-10-25T13:28:48.047Z,97238.97
2017-10-25T13:31:13.798Z,97243.22
2017-10-25T13:33:39.574Z,97240.84
2017-10-25T13:36:05.334Z,97234.93
2017-10-25T13:38:31.087Z,97237.73
2017-10-25T13:40:56.867Z,97234.85
2017-10-25T13:43:22.619Z,97237.10
2017-10-25T13:45:48.388Z,97230.30
2017-10-25T13:48:14.163Z,97215.88
2017-10-25T13:50:39.916Z,97222.38
2017-10-25T13:53:05.712Z,97222.84
2017-10-25T13:55:31.451Z,97227.77
2017-10-25T13:57:57.233Z,97221.17
2017-10-25T14:00:22.996Z,97225.89
2017-10-25T14:02:48.764Z,97226.00
2017-10-25T14:05:14.564Z,97222.30
2017-10-25T14:07:40.303Z,97225.59
2017-10-25T14:10:06.092Z,97212.97
2017-10-25T14:12:31.847Z,97215.47
2017-10-25T14:14:57.649Z,97215.81
2017-10-25T14:17:23.436Z,97219.84
2017-10-25T14:19:49.221Z,97220.27
2017-10-25T14:22:15.030Z,97220.58
2017-10-25T14:24:40.793Z,97222.64
2017-10-25T14:27:18.866Z,97228.77
2017-10-25T14:29:44.631Z,97232.31
2017-10-25T14:32:10.403Z,97227.05
2017-10-25T14:34:36.175Z,97222.73
2017-10-25T14:37:01.931Z,97219.77
2017-10-25T14:39:27.698Z,97216.43
2017-10-25T14:41:53.444Z,97213.63
2017-10-25T14:44:19.248Z,97218.34
2017-10-25T14:46:45.011Z,97222.44
2017-10-25T14:49:10.803Z,97224.75
2017-10-25T14:51:36.575Z,97227.10
2017-10-25T14:54:02.343Z,97237.20
2017-10-25T14:56:28.116Z,97233.98
2017-10-25T14:58:53.886Z,97230.12
2017-10-25T15:01:19.644Z,97230.25
2017-10-25T15:03:45.420Z,97227.47
2017-10-25T15:06:11.183Z,97232.34
2017-10-25T15:08:36.947Z,97232.08
2017-10-25T15:11:03.015Z,97234.16
2017-10-25T15:13:28.799Z,97235.44
2017-10-25T15:15:54.578Z,97244.38
2017-10-25T15:18:20.351Z,97239.05
2017-10-25T15:20:46.120Z,97241.06
2017-10-25T15:23:11.923Z,97240.72
2017-10-25T15:25:37.659Z,97249.68
2017-10-25T15:28:03.435Z,97242.80
2017-10-25T15:30:29.195Z,97252.44
2017-10-25T15:32:54.986Z,97251.85
2017-10-25T15:35:20.742Z,97253.38
2017-10-25T15:37:46.502Z,97258.07
2017-10-25T15:40:12.280Z,97255.75
2017-10-25T15:42:38.072Z,97257.83
2017-10-25T15:45:03.835Z,97262.50
2017-10-25T15:47:29.630Z,97258.28
2017-10-25T15:49:55.394Z,97269.62
2017-10-25T15:52:21.159Z,97282.77
2017-10-25T15:54:46.972Z,97286.13
2017-10-25T15:57:12.731Z,97292.12
2017-10-25T15:59:38.486Z,97293.40
2017-10-25T16:02:04.266Z,97306.74
2017-10-25T16:04:30.031Z,97312.33
2017-10-25T16:06:55.789Z,97315.51
2017-10-25T16:09:21.591Z,97322.70
2017-10-25T16:11:47.342Z,97329.72
2017-10-25T16:14:13.116Z,97329.89
2017-10-25T16:16:38.896Z,97330.11
2017-10-25T16:19:04.659Z,97338.30
2017-10-25T16:21:30.419Z,97334.66
2017-10-25T16:23:56.199Z,97347.03
2017-10-25T16:26:21.952Z,97352.78
2017-10-25T16:28:47.726Z,97346.63
2017-10-25T16:31:13.487Z,97352.97
2017-10-25T16:33:39.307Z,97343.83
2017-10-25T16:36:05.055Z,97345.73
2017-10-25T16:38:30.799Z,97345.16
2017-10-25T16:40:56.571Z,97343.86
2017-10-25T16:43:22.363Z,97350.08
2017-10-25T16:45:48.160Z,97352.12
2017-10-25T16:48:13.943Z,97356.14
2017-10-25T16:50:39.720Z,97349.47
2017-10-25T16:53:05.488Z,97355.34
2017-10-25T16:55:31.268Z,97350.55
2017-10-25T16:57:57.047Z,97346.50
2017-10-25T17:00:22.855Z,97349.70
2017-10-25T17:02:48.594Z,97348.23
2017-10-25T17:05:14.364Z,97356.13
2017-10-25T17:07:40.138Z,97358.58
2017-10-25T17:10:05.891Z,97360.34
2017-10-25T17:12:31.675Z,97351.83
2017-10-25T17:14:57.422Z,97363.05
2017-10-25T17:17:23.202Z,97364.93
2017-10-25T17:19:48.956Z,97361.48
2017-10-25T17:22:14.755Z,97361.21
2017-10-25T17:24:40.534Z,97360.85
2017-10-25T17:27:06.315Z,97358.56
2017-10-25T17:29:32.083Z,97362.97
2017-10-25T17:31:57.831Z,97362.55
2017-10-25T17:34:23.611Z,97367.73
2017-10-25T17:36:49.360Z,97367.95
2017-10-25T17:39:15.106Z,97369.96
2017-10-25T17:41:40.882Z,97372.03
2017-10-25T17:44:06.646Z,97380.77
2017-10-25T17:46:32.410Z,97379.49
2017-10-25T17:48:58.182Z,97383.96
2017-10-25T17:51:23.950Z,97385.54
2017-10-25T17:53:49.720Z,97389.45
2017-10-25T17:56:15.490Z,97396.38
2017-10-25T17:58:41.294Z,97395.91
2017-10-25T18:01:07.061Z,97408.41
2017-10-25T18:03:32.824Z,97410.58
2017-10-25T18:05:58.606Z,97415.30
2017-10-25T18:08:24.360Z,97415.63
2017-10-25T18:10:50.123Z,97411.95
2017-10-25T18:13:15.911Z,97412.41
2017-10-25T18:15:41.671Z,97415.93
2017-10-25T18:18:07.436Z,97409.01
2017-10-25T18:20:33.195Z,97409.20
2017-10-25T18:22:58.991Z,97415.88
2017-10-25T18:25:24.804Z,97417.61
2017-10-25T18:27:50.559Z,97422.17
2017-10-25T18:30:16.339Z,97425.06
2017-10-25T18:32:42.087Z,97425.36
2017-10-25T18:35:07.881Z,97418.11
2017-10-25T18:37:33.659Z,97421.38
2017-10-25T18:39:59.429Z,97420.09
2017-10-25T18:42:25.200Z,97419.57
2017-10-25T18:44:50.946Z,97420.13
2017-10-25T18:47:16.723Z,97421.81
2017-10-25T18:49:42.474Z,97413.31
2017-10-25T18:52:08.219Z,97413.20
2017-10-25T18:54:34.027Z,97419.92
2017-10-25T18:56:59.775Z,97421.13
2017-10-25T18:59:25.549Z,97418.14
2017-10-25T19:01:51.316Z,97427.17
2017-10-25T19:04:17.074Z,97426.44
2017-10-25T19:06:42.853Z,97431.19
2017-10-25T19:09:08.643Z,97427.09
2017-10-25T19:11:34.384Z,97429.33
2017-10-25T19:14:00.135Z,97424.44
2017-10-25T19:16:25.914Z,97421.20
2017-10-25T19:18:51.673Z,97420.69
2017-10-25T19:21:17.443Z,97430.95
2017-10-25T19:23:43.212Z,97436.57
2017-10-25T19:26:09.038Z,97439.56
2017-10-25T19:28:34.805Z,97438.84
2017-10-25T19:31:00.546Z,97442.45
2017-10-25T19:33:26.329Z,97439.04
2017-10-25T19:35:52.079Z,97443.70
2017-10-25T19:38:17.870Z,97444.23
2017-10-25T19:40:43.667Z,97448.06
2017-10-25T19:43:09.412Z,97449.74
2017-10-25T19:45:35.191Z,97462.97
2017-10-25T19:48:00.986Z,97460.15
2017-10-25T19:50:26.779Z,97456.80
2017-10-25T19:52:52.526Z,97455.39
2017-10-25T19:55:18.316Z,97461.77
2017-10-25T19:57:44.103Z,97460.56
2017-10-25T20:00:09.872Z,97458.62
2017-10-25T20:02:35.643Z,97457.66
2017-10-25T20:05:01.430Z,97463.73
2017-10-25T20:07:27.209Z,97468.51
2017-10-25T20:09:52.977Z,97472.53
2017-10-25T20:12:18.759Z,97476.16
2017-10-25T20:14:44.516Z,97468.02
2017-10-25T20:17:10.286Z,97468.55
2017-10-25T20:19:36.047Z,97474.09
2017-10-25T20:22:01.873Z,97484.14
2017-10-25T20:24:27.631Z,97481.88
2017-10-25T20:26:53.407Z,97488.22
2017-10-25T20:29:19.302Z,97492.48
2017-10-25T20:31:45.083Z,97482.60
2017-10-25T20:34:10.855Z,97486.60
2017-10-25T20:36:36.709Z,97482.66
2017-10-25T20:39:02.520Z,97492.13
2017-10-25T20:41:28.312Z,97489.70
2017-10-25T20:43:54.104Z,97487.63
2017-10-25T20:46:19.844Z,97484.30
2017-10-25T20:48:45.607Z,97490.50
2017-10-25T20:51:11.413Z,97491.19
2017-10-25T20:53:37.203Z,97494.80
2017-10-25T20:56:02.956Z,97493.81
2017-10-25T20:58:28.795Z,97494.34
2017-10-25T21:00:54.583Z,97507.32
2017-10-25T21:03:20.332Z,97508.73
2017-10-25T21:05:46.084Z,97511.73
2017-10-25T21:08:11.855Z,97515.51
2017-10-25T21:10:37.602Z,97506.58
2017-10-25T21:13:03.435Z,97505.40
2017-10-25T21:15:29.255Z,97500.05
2017-10-25T21:17:55.011Z,97497.16
2017-10-25T21:20:20.786Z,97499.88
2017-10-25T21:22:46.975Z,97498.14
2017-10-25T21:25:12.731Z,97498.83
2017-10-25T21:27:38.503Z,97505.69
2017-10-25T21:30:04.255Z,97509.58
2017-10-25T21:32:30.031Z,97502.98
2017-10-25T21:34:55.767Z,97509.45
2017-10-25T21:37:21.517Z,97508.00
2017-10-25T21:39:47.345Z,97502.86
2017-10-25T21:42:13.096Z,97502.73
2017-10-25T21:44:38.883Z,97502.59
2017-10-25T21:47:04.635Z,97499.52
2017-10-25T21:49:30.407Z,97497.53
2017-10-25T21:51:56.155Z,97504.99
2017-10-25T21:54:21.939Z,97507.03
2017-10-25T21:56:47.676Z,97506.27
2017-10-25T21:59:13.442Z,97514.13
2017-10-25T22:01:39.201Z,97516.56
2017-10-25T22:04:05.070Z,97511.56
2017-10-25T22:06:30.828Z,97511.53
2017-10-25T22:08:56.569Z,97514.30
2017-10-25T22:11:22.340Z,97516.39
2017-10-25T22:13:48.083Z,97515.87
2017-10-25T22:16:13.847Z,97517.55
2017-10-25T22:18:39.587Z,97514.25
2017-10-25T22:21:05.457Z,97516.15
2017-10-25T22:23:31.206Z,97510.95
2017-10-25T22:25:56.952Z,97513.19
2017-10-25T22:28:22.742Z,97518.17
2017-10-25T22:30:48.480Z,97516.66
2017-10-25T22:33:14.342Z,97523.02
2017-10-25T22:35:40.119Z,97519.19
2017-10-25T22:38:05.848Z,97523.84
2017-10-25T22:40:31.591Z,97520.37
2017-10-25T22:42:57.350Z,97522.84
2017-10-25T22:45:23.171Z,97524.27
2017-10-25T22:47:48.936Z,97528.70
2017-10-25T22:50:14.683Z,97524.89
2017-10-25T22:52:40.442Z,97532.56
2017-10-25T22:55:06.196Z,97534.41
2017-10-25T22:57:31.951Z,97531.80
2017-10-25T22:59:57.686Z,97534.20
2017-10-25T23:02:23.495Z,97531.66
2017-10-25T23:04:49.243Z,97525.73
2017-10-25T23:07:14.999Z,97526.75
2017-10-25T23:09:40.769Z,97528.06
2017-10-25T23:12:06.523Z,97528.85
2017-10-25T23:14:32.302Z,97529.28
2017-10-25T23:16:58.040Z,97526.05
2017-10-25T23:19:23.775Z,97527.25
2017-10-25T23:21:49.539Z,97530.94
2017-10-25T23:24:15.322Z,97524.89
2017-10-25T23:26:41.179Z,97526.27
2017-10-25T23:29:06.927Z,97525.14
2017-10-25T23:31:32.687Z,97523.94
2017-10-25T23:33:58.437Z,97524.52
2017-10-25T23:36:24.222Z,97521.89
2017-10-25T23:38:49.983Z,97525.07
2017-10-25T23:41:15.758Z,97526.88
2017-10-25T23:43:41.534Z,97524.28
2017-10-25T23:46:07.291Z,97528.05
2017-10-25T23:48:33.036Z,97527.71
2017-10-25T23:50:58.824Z,97535.45
2017-10-25T23:53:24.576Z,97533.47
2017-10-25T23:55:50.343Z,97526.40
2017-10-25T23:58:16.227Z,97518.62
